Time;durP1;ratioP1;P1;durP2;ratioP2;P2;SDS_P1;SDS_P2;PMS_P1;PMS_P2;Temp;Humidity;BMP_temperature;BMP_pressure;BME280_temperature;BME280_humidity;BME280_pressure;Samples;Min_cycle;Max_cycle;Signal;HPM_P1;HPM_P2
2023/09/05 00:00:52;;;;;;;3.20;1.40;;;;;;;21.79;42.06;100362.28;4411764;32;34154;-72
2023/09/05 00:03:21;;;;;;;2.58;1.60;;;;;;;21.90;42.04;100353.78;4417495;32;33636;-73
2023/09/05 00:05:49;;;;;;;2.95;1.77;;;;;;;22.12;41.48;100356.75;4417668;32;33424;-72
2023/09/05 00:08:18;;;;;;;2.42;1.48;;;;;;;22.27;41.70;100352.31;4414725;32;34728;-72
2023/09/05 00:10:46;;;;;;;3.72;1.92;;;;;;;22.01;42.16;100349.81;4408426;32;38644;-73
2023/09/05 00:13:14;;;;;;;4.03;2.17;;;;;;;21.57;42.87;100359.25;4417607;32;34644;-72
2023/09/05 00:15:42;;;;;;;2.80;2.15;;;;;;;21.59;42.98;100345.47;4450750;32;32960;-72
2023/09/05 00:18:09;;;;;;;5.25;1.65;;;;;;;21.34;43.39;100355.47;4463016;32;33538;-74
2023/09/05 00:20:37;;;;;;;3.37;2.10;;;;;;;21.82;42.71;100343.72;4456604;32;35551;-71
2023/09/05 00:23:04;;;;;;;4.95;1.75;;;;;;;21.89;42.86;100334.84;4458380;32;33835;-71
2023/09/05 00:25:38;;;;;;;3.35;1.25;;;;;;;22.16;42.32;100334.47;4462945;32;33345;-70
2023/09/05 00:28:06;;;;;;;2.42;1.75;;;;;;;21.78;42.64;100323.28;4466152;32;33460;-70
2023/09/05 00:30:34;;;;;;;3.40;1.80;;;;;;;21.05;44.44;100326.00;4464466;32;33807;-71
2023/09/05 00:33:02;;;;;;;3.87;1.90;;;;;;;21.17;44.19;100327.41;4465017;32;34863;-70
2023/09/05 00:35:30;;;;;;;4.47;2.15;;;;;;;20.93;44.62;100325.50;4465394;32;33433;-70
2023/09/05 00:37:58;;;;;;;2.83;1.62;;;;;;;21.08;44.65;100317.50;4468858;32;34690;-70
2023/09/05 00:40:26;;;;;;;3.65;1.55;;;;;;;21.21;44.08;100312.41;4462659;32;35263;-70
2023/09/05 00:42:54;;;;;;;3.75;1.77;;;;;;;21.62;43.24;100312.44;4467165;32;34861;-70
2023/09/05 00:45:21;;;;;;;6.32;2.17;;;;;;;21.53;43.48;100317.03;4465448;32;33394;-70
2023/09/05 00:47:49;;;;;;;4.65;1.83;;;;;;;21.13;44.51;100305.09;4465734;32;33689;-70
2023/09/05 00:50:18;;;;;;;3.03;1.65;;;;;;;20.48;46.08;100315.81;4467961;32;33873;-71
2023/09/05 00:52:45;;;;;;;2.60;1.27;;;;;;;20.91;45.03;100311.22;4467363;32;33982;-75
2023/09/05 00:55:14;;;;;;;2.87;1.67;;;;;;;20.55;45.78;100308.75;4462756;32;34225;-71
2023/09/05 00:57:41;;;;;;;6.78;1.77;;;;;;;21.12;44.51;100300.69;4466039;32;33947;-76
2023/09/05 01:00:09;;;;;;;3.58;1.70;;;;;;;20.40;46.33;100307.66;4456303;32;34377;-75
2023/09/05 01:02:37;;;;;;;3.22;1.83;;;;;;;20.48;46.24;100289.50;4463636;32;33440;-73
2023/09/05 01:05:06;;;;;;;2.47;1.37;;;;;;;20.52;46.20;100298.22;4463943;32;33983;-70
2023/09/05 01:07:53;;;;;;;2.70;1.58;;;;;;;20.69;45.56;100294.50;4468402;32;33873;-69
2023/09/05 01:10:24;;;;;;;3.25;1.55;;;;;;;20.83;45.43;100292.97;4466150;32;34201;-70
2023/09/05 01:12:53;;;;;;;4.68;2.15;;;;;;;20.81;45.48;100286.03;4466120;32;34119;-71
2023/09/05 01:15:21;;;;;;;4.03;1.45;;;;;;;20.28;46.81;100292.66;4466724;32;34375;-71
2023/09/05 01:17:50;;;;;;;5.50;1.92;;;;;;;20.54;46.11;100293.44;4465778;32;34824;-71
2023/09/05 01:20:19;;;;;;;1.77;0.95;;;;;;;20.83;45.57;100278.53;4463306;32;34374;-71
2023/09/05 01:23:02;;;;;;;2.62;1.55;;;;;;;20.46;46.61;100288.81;4455740;32;33826;-71
2023/09/05 01:25:30;;;;;;;3.53;1.92;;;;;;;20.78;45.81;100279.06;4463572;32;33261;-71
2023/09/05 01:27:59;;;;;;;4.10;2.53;;;;;;;20.62;46.01;100282.59;4465904;32;34870;-72
2023/09/05 01:30:28;;;;;;;4.15;2.03;;;;;;;20.41;46.50;100291.16;4453410;32;34137;-72
2023/09/05 01:32:56;;;;;;;3.70;1.75;;;;;;;20.21;47.05;100292.44;4463179;32;34545;-71
2023/09/05 01:35:23;;;;;;;1.87;1.70;;;;;;;20.09;47.51;100291.87;4460495;32;33626;-71
2023/09/05 01:37:51;;;;;;;2.87;1.50;;;;;;;19.78;48.34;100297.00;4454713;32;34318;-71
2023/09/05 01:40:19;;;;;;;2.90;1.67;;;;;;;20.42;46.51;100300.19;4464725;32;33777;-71
2023/09/05 01:42:47;;;;;;;4.10;1.45;;;;;;;20.32;46.90;100302.16;4466444;32;33728;-70
2023/09/05 01:45:14;;;;;;;3.78;1.40;;;;;;;19.99;47.75;100299.31;4466924;32;33506;-71
2023/09/05 01:47:42;;;;;;;1.35;0.95;;;;;;;20.66;46.16;100294.84;4467387;32;33883;-71
2023/09/05 01:50:11;;;;;;;3.62;2.03;;;;;;;20.20;47.34;100301.63;4462688;32;35284;-70
2023/09/05 01:52:38;;;;;;;4.53;2.17;;;;;;;20.07;47.54;100296.66;4466440;32;33725;-70
2023/09/05 01:55:08;;;;;;;4.22;1.92;;;;;;;20.32;47.11;100296.72;4463631;32;33533;-73
2023/09/05 01:57:36;;;;;;;3.05;1.67;;;;;;;20.35;46.98;100290.97;4468206;32;33934;-73
2023/09/05 02:00:04;;;;;;;2.55;1.42;;;;;;;19.75;48.62;100281.88;4463306;32;34172;-73
2023/09/05 02:02:39;;;;;;;3.10;1.65;;;;;;;19.75;48.34;100276.44;4467205;32;33328;-73
2023/09/05 02:05:09;;;;;;;3.37;1.30;;;;;;;20.53;46.43;100278.16;4458109;32;33492;-73
2023/09/05 02:07:36;;;;;;;3.95;1.35;;;;;;;20.67;46.03;100273.91;4460772;32;33716;-73
2023/09/05 02:10:06;;;;;;;2.80;1.85;;;;;;;20.22;47.13;100288.72;4461044;32;33694;-72
2023/09/05 02:12:35;;;;;;;2.50;1.35;;;;;;;20.04;47.67;100282.53;4463835;32;35346;-73
2023/09/05 02:15:03;;;;;;;3.45;2.20;;;;;;;20.05;47.60;100270.66;4465570;32;34441;-70
2023/09/05 02:17:31;;;;;;;3.62;1.83;;;;;;;20.06;47.81;100275.91;4467520;32;34724;-70
2023/09/05 02:19:59;;;;;;;6.03;2.10;;;;;;;19.93;47.88;100275.50;4465075;32;34279;-70
2023/09/05 02:22:27;;;;;;;3.42;1.77;;;;;;;20.22;47.16;100289.59;4466881;32;34971;-71
2023/09/05 02:24:54;;;;;;;1.58;0.90;;;;;;;20.15;47.40;100277.66;4463970;32;32391;-70
2023/09/05 02:27:22;;;;;;;2.85;1.87;;;;;;;19.97;47.67;100285.91;4465006;32;34014;-70
2023/09/05 02:29:56;;;;;;;3.90;1.90;;;;;;;19.97;48.00;100287.78;4462129;32;33861;-70
2023/09/05 02:32:24;;;;;;;4.03;2.55;;;;;;;20.10;47.48;100284.59;4466041;32;34678;-71
2023/09/05 02:34:53;;;;;;;3.20;1.42;;;;;;;19.81;48.21;100284.94;4466856;32;34596;-71
2023/09/05 02:37:21;;;;;;;4.82;1.70;;;;;;;19.75;48.32;100284.59;4465661;32;34657;-70
2023/09/05 02:39:49;;;;;;;4.03;1.83;;;;;;;19.17;50.00;100287.87;4466398;32;34868;-70
2023/09/05 02:42:17;;;;;;;3.90;1.67;;;;;;;19.49;49.03;100290.00;4468205;32;34880;-71
2023/09/05 02:44:44;;;;;;;2.15;1.42;;;;;;;19.88;48.30;100292.31;4466014;32;33380;-71
2023/09/05 02:47:12;;;;;;;3.15;1.75;;;;;;;19.45;49.26;100287.75;4461483;32;34633;-72
2023/09/05 02:49:40;;;;;;;4.55;2.15;;;;;;;19.71;48.63;100287.78;4465922;32;34170;-71
2023/09/05 02:52:07;;;;;;;2.60;1.55;;;;;;;19.53;49.01;100287.81;4467358;32;33856;-70
2023/09/05 02:54:38;;;;;;;5.37;2.72;;;;;;;19.73;48.60;100291.19;4465450;32;34226;-70
2023/09/05 02:57:06;;;;;;;2.40;1.33;;;;;;;19.48;49.21;100293.69;4464455;32;33512;-70
2023/09/05 02:59:33;;;;;;;1.65;1.25;;;;;;;19.46;49.30;100301.16;4466101;32;34238;-70
2023/09/05 03:02:01;;;;;;;2.67;1.77;;;;;;;20.13;47.57;100297.87;4466519;32;35084;-70
2023/09/05 03:04:32;;;;;;;3.08;1.87;;;;;;;19.72;48.69;100294.94;4462681;32;34355;-71
2023/09/05 03:07:03;;;;;;;2.55;1.15;;;;;;;19.89;48.00;100285.84;4464433;32;33645;-70
2023/09/05 03:09:32;;;;;;;3.30;1.37;;;;;;;19.96;47.62;100305.91;4457022;32;34162;-71
2023/09/05 03:12:00;;;;;;;1.67;1.08;;;;;;;20.11;47.47;100300.72;4462935;32;34666;-70
2023/09/05 03:14:31;;;;;;;5.20;1.87;;;;;;;20.23;47.00;100304.03;4459614;32;34060;-70
2023/09/05 03:16:59;;;;;;;3.47;1.67;;;;;;;20.07;47.48;100301.22;4460702;32;33822;-70
2023/09/05 03:19:27;;;;;;;1.50;1.15;;;;;;;20.25;46.79;100308.25;4468144;32;34831;-70
2023/09/05 03:21:55;;;;;;;4.62;1.65;;;;;;;20.11;47.23;100314.31;4463745;32;34824;-70
2023/09/05 03:24:25;;;;;;;2.87;1.42;;;;;;;19.66;48.34;100307.28;4461246;32;32252;-72
2023/09/05 03:26:52;;;;;;;2.17;1.23;;;;;;;19.98;47.42;100305.78;4465738;32;35298;-72
2023/09/05 03:29:20;;;;;;;3.33;1.75;;;;;;;19.78;48.06;100303.28;4467277;32;34474;-72
2023/09/05 03:31:48;;;;;;;4.45;2.20;;;;;;;20.21;47.21;100317.75;4466760;32;34943;-73
2023/09/05 03:34:16;;;;;;;3.15;1.40;;;;;;;19.89;47.71;100314.87;4467210;32;34211;-74
2023/09/05 03:36:43;;;;;;;9.93;1.75;;;;;;;19.68;48.25;100321.56;4465377;32;35610;-73
2023/09/05 03:39:12;;;;;;;4.32;1.42;;;;;;;19.99;47.53;100327.31;4460817;32;33659;-73
2023/09/05 03:41:39;;;;;;;3.67;1.75;;;;;;;19.88;47.61;100324.91;4459770;32;33995;-72
2023/09/05 03:44:07;;;;;;;2.72;1.87;;;;;;;20.02;47.59;100320.72;4465118;32;34306;-71
2023/09/05 03:46:35;;;;;;;2.25;1.20;;;;;;;19.48;48.89;100329.00;4466224;32;33492;-70
2023/09/05 03:49:02;;;;;;;2.72;1.73;;;;;;;19.91;48.00;100330.00;4464243;32;35067;-71
2023/09/05 03:51:32;;;;;;;3.15;1.80;;;;;;;19.81;49.22;100333.84;4466241;32;34020;-71
2023/09/05 03:54:01;;;;;;;1.48;1.15;;;;;;;20.01;47.48;100329.91;4466822;32;34910;-71
2023/09/05 03:56:28;;;;;;;7.22;2.45;;;;;;;20.05;47.47;100333.13;4465062;32;34095;-70
2023/09/05 03:58:56;;;;;;;14.90;2.53;;;;;;;19.65;49.17;100329.16;4465729;32;33630;-71
2023/09/05 04:01:25;;;;;;;3.92;1.87;;;;;;;19.96;47.25;100335.78;4461414;32;34688;-70
2023/09/05 04:03:53;;;;;;;4.87;2.47;;;;;;;20.12;47.25;100335.03;4466872;32;33664;-69
2023/09/05 04:06:21;;;;;;;3.25;1.70;;;;;;;20.35;46.62;100337.19;4464185;32;34657;-69
2023/09/05 04:08:50;;;;;;;3.72;2.15;;;;;;;20.20;47.30;100345.97;4464489;32;33866;-69
2023/09/05 04:11:18;;;;;;;3.67;1.92;;;;;;;20.59;46.83;100352.78;4464567;32;34713;-69
2023/09/05 04:13:46;;;;;;;3.83;1.65;;;;;;;20.54;46.63;100353.25;4463914;32;33273;-76
2023/09/05 04:16:13;;;;;;;3.92;1.90;;;;;;;21.12;44.72;100355.13;4466384;32;34172;-71
2023/09/05 04:18:41;;;;;;;7.87;2.10;;;;;;;20.91;44.95;100352.87;4465350;32;34005;-71
2023/09/05 04:21:09;;;;;;;4.65;1.92;;;;;;;20.93;45.18;100352.72;4462418;32;33845;-68
2023/09/05 04:23:37;;;;;;;2.83;1.33;;;;;;;21.06;44.96;100349.47;4466623;32;34268;-75
2023/09/05 04:26:04;;;;;;;3.35;1.98;;;;;;;20.60;46.28;100362.63;4466261;32;34016;-69
2023/09/05 04:28:32;;;;;;;3.17;1.52;;;;;;;21.01;45.05;100354.59;4465884;32;35134;-72
2023/09/05 04:31:04;;;;;;;4.20;2.03;;;;;;;20.84;45.50;100356.44;4464284;32;34810;-72
2023/09/05 04:33:36;;;;;;;2.83;1.40;;;;;;;21.09;44.79;100352.75;4463981;32;33077;-73
2023/09/05 04:36:08;;;;;;;2.42;1.40;;;;;;;21.26;44.68;100353.59;4464686;32;34786;-71
2023/09/05 04:38:37;;;;;;;3.12;1.80;;;;;;;21.24;44.51;100360.22;4462095;32;35849;-72
2023/09/05 04:41:07;;;;;;;3.78;1.45;;;;;;;21.61;44.37;100357.88;4463578;32;34090;-71
2023/09/05 04:43:35;;;;;;;4.12;1.75;;;;;;;20.79;46.00;100362.34;4464697;32;33380;-72
2023/09/05 04:46:05;;;;;;;4.90;1.95;;;;;;;21.27;44.63;100362.63;4462746;32;33481;-72
2023/09/05 04:48:33;;;;;;;3.95;2.00;;;;;;;21.40;45.18;100363.00;4465099;32;33744;-72
2023/09/05 04:51:04;;;;;;;3.22;2.05;;;;;;;20.32;46.49;100359.25;4465599;32;32685;-72
2023/09/05 04:53:32;;;;;;;3.75;1.70;;;;;;;21.09;45.62;100369.06;4467229;32;34441;-71
2023/09/05 04:56:00;;;;;;;2.80;1.48;;;;;;;20.77;45.82;100367.13;4465917;32;33793;-71
2023/09/05 04:58:29;;;;;;;4.65;2.00;;;;;;;21.24;45.17;100374.69;4466581;32;34059;-72
2023/09/05 05:01:04;;;;;;;3.33;1.45;;;;;;;21.57;44.68;100366.56;4459382;32;33986;-71
2023/09/05 05:03:33;;;;;;;3.50;1.35;;;;;;;21.86;44.02;100376.91;4465151;32;33531;-73
2023/09/05 05:06:02;;;;;;;3.85;1.62;;;;;;;21.81;43.59;100376.59;4466482;32;33897;-74
2023/09/05 05:08:30;;;;;;;3.53;1.87;;;;;;;21.68;44.38;100373.56;4466830;32;34012;-73
2023/09/05 05:11:02;;;;;;;4.25;2.05;;;;;;;22.22;43.05;100384.75;4462888;32;34569;-73
2023/09/05 05:13:30;;;;;;;3.45;2.05;;;;;;;22.68;42.69;100374.81;4464633;32;33623;-72
2023/09/05 05:15:58;;;;;;;8.27;1.85;;;;;;;23.31;41.21;100378.41;4457847;32;35038;-72
2023/09/05 05:18:26;;;;;;;4.00;1.90;;;;;;;23.65;40.34;100377.94;4463886;32;33959;-72
2023/09/05 05:20:54;;;;;;;3.40;2.28;;;;;;;23.98;39.48;100376.81;4466873;32;34383;-73
2023/09/05 05:23:21;;;;;;;2.97;1.77;;;;;;;24.30;39.19;100378.34;4455663;32;33203;-71
2023/09/05 05:25:49;;;;;;;4.43;1.98;;;;;;;24.33;38.97;100369.75;4465111;32;34430;-70
2023/09/05 05:28:16;;;;;;;4.10;2.00;;;;;;;24.14;39.96;100382.97;4462915;32;33740;-70
2023/09/05 05:30:44;;;;;;;5.43;2.12;;;;;;;24.01;40.43;100377.28;4463555;32;33746;-71
2023/09/05 05:33:12;;;;;;;5.00;2.15;;;;;;;24.22;39.54;100373.81;4462642;32;34637;-71
2023/09/05 05:35:39;;;;;;;6.20;3.12;;;;;;;23.77;39.83;100375.66;4467077;32;33931;-71
2023/09/05 05:38:07;;;;;;;3.22;1.60;;;;;;;23.42;41.40;100375.22;4465263;32;35189;-71
2023/09/05 05:40:34;;;;;;;4.53;2.05;;;;;;;23.98;39.98;100372.22;4467495;32;34082;-70
2023/09/05 05:43:02;;;;;;;4.25;2.03;;;;;;;23.90;40.42;100367.66;4469042;32;34227;-72
2023/09/05 05:45:30;;;;;;;4.72;1.58;;;;;;;23.46;41.66;100379.28;4465916;32;33687;-71
2023/09/05 05:47:58;;;;;;;5.87;2.80;;;;;;;23.79;41.46;100378.19;4466703;32;35796;-71
2023/09/05 05:50:25;;;;;;;4.28;2.55;;;;;;;24.05;40.62;100380.53;4465736;32;34217;-70
2023/09/05 05:52:53;;;;;;;5.90;3.10;;;;;;;25.07;38.61;100389.69;4462513;32;32932;-71
2023/09/05 05:55:21;;;;;;;6.78;2.22;;;;;;;26.27;35.63;100381.72;4457446;32;33916;-71
2023/09/05 05:57:49;;;;;;;3.85;1.92;;;;;;;27.06;35.20;100386.75;4462588;32;33707;-71
2023/09/05 06:00:17;;;;;;;3.15;1.77;;;;;;;26.97;35.15;100380.63;4464432;32;34022;-71
2023/09/05 06:02:45;;;;;;;7.10;2.83;;;;;;;26.31;35.51;100378.38;4462913;32;34002;-71
2023/09/05 06:05:12;;;;;;;4.65;2.08;;;;;;;26.09;35.97;100380.34;4463210;32;33706;-70
2023/09/05 06:07:40;;;;;;;4.85;2.58;;;;;;;25.68;36.58;100372.84;4466987;32;33866;-71
2023/09/05 06:10:08;;;;;;;4.20;1.80;;;;;;;25.59;37.25;100375.91;4461895;32;34668;-71
2023/09/05 06:12:37;;;;;;;3.17;1.50;;;;;;;25.41;37.81;100365.41;4454829;32;33289;-72
2023/09/05 06:15:04;;;;;;;4.03;1.75;;;;;;;25.30;37.95;100367.62;4460601;32;33986;-71
2023/09/05 06:17:32;;;;;;;6.10;2.62;;;;;;;24.70;39.03;100373.44;4456066;32;35118;-72
2023/09/05 06:20:00;;;;;;;3.30;1.95;;;;;;;24.22;38.36;100371.09;4460065;32;35473;-72
2023/09/05 06:22:28;;;;;;;5.65;2.12;;;;;;;24.22;39.02;100372.97;4462367;32;33556;-72
2023/09/05 06:24:55;;;;;;;4.03;2.03;;;;;;;24.53;38.68;100373.66;4464603;32;33772;-72
2023/09/05 06:27:23;;;;;;;3.72;1.92;;;;;;;24.37;38.44;100373.84;4455935;32;33928;-72
2023/09/05 06:29:51;;;;;;;5.55;2.60;;;;;;;24.33;38.62;100370.62;4463200;32;33635;-71
2023/09/05 06:32:18;;;;;;;5.95;2.10;;;;;;;24.09;39.01;100379.94;4463701;32;34605;-71
2023/09/05 06:34:47;;;;;;;6.15;2.90;;;;;;;23.45;39.54;100374.03;4465982;32;33753;-72
2023/09/05 06:37:15;;;;;;;5.60;2.72;;;;;;;23.80;39.37;100372.56;4466988;32;34738;-72
2023/09/05 06:39:42;;;;;;;4.00;2.25;;;;;;;23.49;39.91;100375.34;4451421;32;35247;-73
2023/09/05 06:42:10;;;;;;;5.57;2.60;;;;;;;23.46;39.62;100376.56;4465546;32;31829;-71
2023/09/05 06:44:38;;;;;;;7.72;2.05;;;;;;;23.56;39.29;100389.13;4454510;32;34738;-72
2023/09/05 06:47:06;;;;;;;7.12;2.37;;;;;;;23.11;40.18;100379.91;4464118;32;33871;-72
2023/09/05 06:49:33;;;;;;;4.03;2.03;;;;;;;22.44;41.70;100374.91;4464065;32;33588;-71
2023/09/05 06:52:01;;;;;;;5.10;1.95;;;;;;;22.78;41.10;100382.78;4467311;32;33074;-71
2023/09/05 06:54:29;;;;;;;6.05;2.58;;;;;;;22.69;41.86;100383.84;4458505;32;33684;-71
2023/09/05 06:56:56;;;;;;;5.68;2.30;;;;;;;22.61;41.22;100378.47;4467701;32;34679;-71
2023/09/05 06:59:24;;;;;;;5.65;2.72;;;;;;;22.96;40.69;100380.69;4463474;32;33965;-72
2023/09/05 07:01:52;;;;;;;4.55;2.20;;;;;;;23.00;40.71;100367.53;4464675;32;33467;-71
2023/09/05 07:04:20;;;;;;;8.60;2.60;;;;;;;23.30;40.90;100378.56;4462835;32;33840;-71
2023/09/05 07:06:48;;;;;;;5.35;2.42;;;;;;;23.14;40.80;100377.66;4462352;32;35009;-71
2023/09/05 07:09:16;;;;;;;5.97;2.10;;;;;;;22.77;41.56;100375.66;4460093;32;34835;-71
2023/09/05 07:11:44;;;;;;;2.53;1.33;;;;;;;23.02;40.96;100379.13;4462795;32;33333;-72
2023/09/05 07:14:11;;;;;;;9.75;1.75;;;;;;;22.29;42.14;100383.00;4460820;32;34160;-72
2023/09/05 07:16:39;;;;;;;4.90;2.00;;;;;;;22.59;41.80;100384.06;4466747;32;34437;-71
2023/09/05 07:19:07;;;;;;;4.25;1.67;;;;;;;22.71;42.00;100390.00;4465080;32;32416;-72
2023/09/05 07:21:37;;;;;;;4.03;1.73;;;;;;;22.95;41.48;100389.91;4465707;32;33120;-71
2023/09/05 07:24:07;;;;;;;5.45;2.17;;;;;;;23.12;41.56;100389.81;4462368;32;34430;-75
2023/09/05 07:26:35;;;;;;;3.35;1.52;;;;;;;23.15;41.36;100384.84;4462947;32;35362;-74
2023/09/05 07:29:03;;;;;;;3.22;1.77;;;;;;;23.37;41.37;100391.34;4453246;32;34927;-75
2023/09/05 07:31:31;;;;;;;4.93;2.62;;;;;;;22.77;42.20;100387.41;4459084;32;33187;-75
2023/09/05 07:33:59;;;;;;;3.87;1.83;;;;;;;22.88;41.51;100396.22;4461718;32;36251;-75
2023/09/05 07:36:31;;;;;;;4.78;2.40;;;;;;;22.70;42.33;100385.59;4466080;32;34105;-75
2023/09/05 07:38:59;;;;;;;8.85;2.12;;;;;;;23.11;40.81;100402.59;4468092;32;34347;-75
2023/09/05 07:41:28;;;;;;;3.58;1.95;;;;;;;22.84;42.45;100392.16;4467286;32;34432;-76
2023/09/05 07:43:56;;;;;;;3.42;1.98;;;;;;;22.86;41.80;100393.69;4466175;32;33453;-76
2023/09/05 07:46:24;;;;;;;6.28;2.78;;;;;;;23.46;40.93;100395.69;4462479;32;34015;-75
2023/09/05 07:48:52;;;;;;;5.85;3.12;;;;;;;23.43;40.21;100392.47;4466327;32;33684;-75
2023/09/05 07:51:22;;;;;;;3.92;2.20;;;;;;;23.09;41.82;100401.09;4464670;32;33642;-76
2023/09/05 07:54:04;;;;;;;8.07;2.47;;;;;;;22.87;41.99;100409.03;4463821;32;33480;-75
2023/09/05 07:56:33;;;;;;;3.15;1.58;;;;;;;22.93;41.74;100402.00;4462131;32;32865;-75
2023/09/05 07:59:02;;;;;;;4.03;1.87;;;;;;;23.01;40.95;100410.16;4467679;32;34030;-75
2023/09/05 08:01:30;;;;;;;4.07;1.75;;;;;;;22.51;41.96;100411.41;4461098;32;34965;-75
2023/09/05 08:03:58;;;;;;;2.42;1.65;;;;;;;22.74;42.04;100403.28;4467218;32;33520;-76
2023/09/05 08:06:25;;;;;;;3.62;1.73;;;;;;;22.46;42.62;100400.16;4454927;32;34354;-75
2023/09/05 08:08:53;;;;;;;4.03;2.08;;;;;;;22.79;42.31;100400.84;4466147;32;34944;-75
2023/09/05 08:11:21;;;;;;;3.92;2.15;;;;;;;23.28;41.44;100399.78;4467037;32;33867;-74
2023/09/05 08:13:49;;;;;;;5.07;2.28;;;;;;;22.26;42.94;100403.28;4460303;32;33573;-75
2023/09/05 08:16:16;;;;;;;4.65;2.05;;;;;;;22.78;41.66;100402.75;4456757;32;33778;-74
2023/09/05 08:18:45;;;;;;;4.03;2.20;;;;;;;23.00;42.34;100406.59;4462933;32;34313;-75
2023/09/05 08:21:12;;;;;;;4.87;2.12;;;;;;;23.32;41.32;100398.38;4460617;32;34725;-74
2023/09/05 08:23:40;;;;;;;3.37;1.80;;;;;;;23.17;41.76;100398.28;4455387;32;34512;-73
2023/09/05 08:26:10;;;;;;;9.07;2.60;;;;;;;23.56;40.97;100397.31;4464675;32;34999;-75
2023/09/05 08:28:43;;;;;;;4.93;2.12;;;;;;;23.70;40.32;100391.94;4464718;32;32658;-77
2023/09/05 08:31:11;;;;;;;4.32;2.00;;;;;;;23.78;39.64;100393.75;4459076;32;33043;-75
2023/09/05 08:33:42;;;;;;;4.65;2.50;;;;;;;23.49;41.69;100389.00;4463748;32;33705;-74
2023/09/05 08:36:10;;;;;;;5.55;2.28;;;;;;;23.77;40.71;100394.78;4467139;32;33947;-73
2023/09/05 08:38:39;;;;;;;5.95;2.60;;;;;;;23.83;40.94;100393.22;4465017;32;33696;-73
2023/09/05 08:41:07;;;;;;;6.45;2.70;;;;;;;23.90;39.81;100383.22;4472329;32;31996;-73
2023/09/05 08:43:35;;;;;;;6.03;2.58;;;;;;;24.08;38.94;100385.63;4466069;32;33629;-73
2023/09/05 08:46:03;;;;;;;5.07;2.08;;;;;;;23.57;41.05;100386.22;4456709;32;35119;-73
2023/09/05 08:48:32;;;;;;;4.12;1.85;;;;;;;23.87;39.88;100383.59;4465762;32;33669;-77
2023/09/05 08:51:20;;;;;;;4.10;1.90;;;;;;;23.87;39.81;100369.94;4461054;32;33632;-75
2023/09/05 08:53:58;;;;;;;6.30;2.50;;;;;;;24.18;39.85;100369.78;4462772;32;33673;-74
2023/09/05 08:56:26;;;;;;;5.22;2.15;;;;;;;23.90;40.02;100377.75;4455876;32;33965;-74
2023/09/05 08:58:56;;;;;;;5.45;2.10;;;;;;;24.38;40.16;100376.37;4456522;32;33817;-74
2023/09/05 09:01:25;;;;;;;4.10;2.03;;;;;;;24.10;39.41;100383.53;4462881;32;33377;-74
2023/09/05 09:03:56;;;;;;;4.62;2.55;;;;;;;24.19;39.38;100379.66;4465823;32;33562;-73
2023/09/05 09:06:24;;;;;;;5.18;2.33;;;;;;;24.01;39.16;100379.19;4466330;32;34027;-75
2023/09/05 09:08:53;;;;;;;4.07;2.20;;;;;;;24.30;38.98;100361.94;4468027;32;33636;-75
2023/09/05 09:11:22;;;;;;;7.50;2.55;;;;;;;24.53;39.22;100365.47;4464941;32;33393;-75
2023/09/05 09:13:57;;;;;;;6.85;3.10;;;;;;;24.20;39.21;100364.94;4463731;32;32802;-75
2023/09/05 09:16:25;;;;;;;;;;;;;;;24.17;39.88;100357.12;4466149;32;34013;-75
2023/09/05 09:19:04;;;;;;;6.40;2.85;;;;;;;24.05;39.56;100351.28;4465758;32;34415;-75
2023/09/05 09:21:35;;;;;;;6.47;2.03;;;;;;;24.85;38.36;100349.63;4465925;32;33538;-76
2023/09/05 09:24:10;;;;;;;4.50;2.00;;;;;;;24.75;38.84;100343.59;4466530;32;33795;-76
2023/09/05 09:26:38;;;;;;;5.53;2.42;;;;;;;24.78;38.07;100357.78;4460611;32;33657;-77
2023/09/05 09:29:07;;;;;;;3.97;2.15;;;;;;;25.03;37.16;100350.03;4461229;32;34942;-76
2023/09/05 09:31:37;;;;;;;4.53;2.42;;;;;;;24.72;38.58;100353.06;4462152;32;33300;-71
2023/09/05 09:34:06;;;;;;;4.53;2.62;;;;;;;25.20;37.66;100338.84;4462786;32;33787;-72
2023/09/05 09:36:36;;;;;;;5.03;2.30;;;;;;;25.72;37.27;100341.22;4462696;32;33929;-74
2023/09/05 09:39:08;;;;;;;3.83;2.37;;;;;;;25.57;36.89;100340.47;4460938;32;34210;-73
2023/09/05 09:41:46;;;;;;;4.12;2.35;;;;;;;25.29;37.56;100338.53;4433141;32;33239;-74
2023/09/05 09:44:28;;;;;;;3.95;1.87;;;;;;;24.92;37.92;100336.03;4431552;32;34798;-73
2023/09/05 09:46:58;;;;;;;4.80;2.50;;;;;;;25.52;37.20;100330.12;4421699;32;34306;-73
2023/09/05 09:49:28;;;;;;;5.45;2.62;;;;;;;25.84;37.10;100330.56;4434621;32;33686;-74
2023/09/05 09:51:58;;;;;;;3.17;1.83;;;;;;;25.77;36.20;100330.50;4434055;32;34417;-74
2023/09/05 09:54:31;;;;;;;5.07;1.65;;;;;;;25.40;36.09;100336.31;4433798;32;34075;-74
2023/09/05 09:57:00;;;;;;;7.55;2.50;;;;;;;25.32;36.34;100343.62;4419468;32;35033;-74
2023/09/05 09:59:35;;;;;;;5.55;2.40;;;;;;;24.96;36.97;100334.59;4429167;32;35038;-73
2023/09/05 10:02:08;;;;;;;4.83;2.57;;;;;;;24.32;38.35;100332.50;4433365;32;33836;-73
2023/09/05 10:04:44;;;;;;;4.15;2.00;;;;;;;24.68;37.65;100331.72;4435267;32;33600;-74
2023/09/05 10:07:14;;;;;;;5.03;2.53;;;;;;;25.07;36.29;100331.31;4432645;32;33983;-74
2023/09/05 10:09:45;;;;;;;4.43;2.22;;;;;;;25.00;37.19;100323.03;4434240;32;33863;-74
2023/09/05 10:12:18;;;;;;;3.45;1.58;;;;;;;25.19;37.26;100327.06;4438496;32;33780;-74
2023/09/05 10:14:48;;;;;;;5.72;2.25;;;;;;;24.93;37.33;100322.13;4453221;32;34115;-74
2023/09/05 10:17:16;;;;;;;5.60;2.35;;;;;;;25.30;37.42;100326.53;4463248;32;34127;-73
2023/09/05 10:19:44;;;;;;;4.80;2.12;;;;;;;25.51;36.79;100322.91;4453683;32;33641;-74
2023/09/05 10:22:16;;;;;;;3.45;2.03;;;;;;;25.84;36.78;100321.50;4466326;32;33466;-73
2023/09/05 10:24:45;;;;;;;6.05;2.55;;;;;;;26.23;36.22;100310.81;4465438;32;33861;-74
2023/09/05 10:27:13;;;;;;;7.70;2.08;;;;;;;26.03;36.22;100315.31;4465152;32;34187;-73
2023/09/05 10:29:45;;;;;;;4.00;2.33;;;;;;;26.30;35.99;100307.25;4450554;32;34253;-73
2023/09/05 10:32:18;;;;;;;6.15;2.50;;;;;;;26.89;34.77;100304.72;4462949;32;33385;-73
2023/09/05 10:34:48;;;;;;;5.32;2.20;;;;;;;26.35;35.46;100311.03;4457598;32;34765;-73
2023/09/05 10:37:23;;;;;;;6.40;2.80;;;;;;;26.27;35.11;100299.41;4468401;32;35225;-73
2023/09/05 10:39:57;;;;;;;4.32;2.10;;;;;;;26.58;35.60;100302.53;4466827;32;34645;-74
2023/09/05 10:42:31;;;;;;;3.97;2.03;;;;;;;26.65;34.73;100294.31;4468696;32;34185;-73
2023/09/05 10:45:15;;;;;;;5.18;1.92;;;;;;;26.41;35.67;100291.03;4464556;32;35100;-73
2023/09/05 10:47:43;;;;;;;6.87;2.70;;;;;;;26.74;35.08;100287.56;4464381;32;35209;-73
2023/09/05 10:50:12;;;;;;;4.62;2.25;;;;;;;27.02;34.29;100289.34;4467136;32;34650;-74
2023/09/05 10:52:40;;;;;;;5.90;2.85;;;;;;;27.37;33.94;100279.03;4466921;32;33587;-73
2023/09/05 10:55:29;;;;;;;3.90;2.55;;;;;;;26.67;35.75;100283.97;4456877;32;34174;-73
2023/09/05 10:57:57;;;;;;;5.40;2.53;;;;;;;27.22;35.31;100281.97;4461620;32;34205;-73
2023/09/05 11:00:29;;;;;;;6.65;2.37;;;;;;;27.17;34.20;100285.38;4466083;32;33777;-74
2023/09/05 11:03:12;;;;;;;4.30;2.33;;;;;;;27.26;34.22;100280.53;4466747;32;34132;-74
2023/09/05 11:05:42;;;;;;;;;;;;;;;27.39;33.64;100277.78;4466636;32;34056;-75
2023/09/05 11:08:20;;;;;;;5.62;2.03;;;;;;;27.10;34.17;100276.25;4463149;32;34163;-75
2023/09/05 11:10:53;;;;;;;4.72;2.25;;;;;;;27.53;33.96;100272.25;4462511;32;34778;-77
2023/09/05 11:13:21;;;;;;;4.85;2.97;;;;;;;27.54;33.00;100274.78;4463517;32;33084;-76
2023/09/05 11:15:57;;;;;;;11.32;3.15;;;;;;;27.29;34.26;100268.28;4465490;32;35479;-76
2023/09/05 11:18:25;;;;;;;4.95;2.20;;;;;;;27.52;34.23;100274.16;4453874;32;33951;-75
2023/09/05 11:20:54;;;;;;;4.50;2.75;;;;;;;27.91;33.46;100275.19;4459987;32;34390;-76
2023/09/05 11:23:25;;;;;;;4.03;2.30;;;;;;;27.34;34.04;100273.97;4453418;32;33655;-76
2023/09/05 11:25:56;;;;;;;5.28;3.05;;;;;;;27.27;33.98;100267.63;4454841;32;33956;-77
2023/09/05 11:28:24;;;;;;;5.05;2.25;;;;;;;27.77;32.51;100271.63;4457659;32;33061;-76
2023/09/05 11:30:56;;;;;;;4.40;2.08;;;;;;;27.59;33.13;100271.41;4459999;32;34645;-77
2023/09/05 11:33:25;;;;;;;3.78;1.65;;;;;;;27.63;32.85;100270.75;4466402;32;33314;-78
2023/09/05 11:35:54;;;;;;;9.00;2.60;;;;;;;27.61;33.00;100263.81;4461654;32;34600;-77